Maimiti — PBIJ — position and weather

sailwx.info

Track history (hours):
 
Tides and Currents Weather Stations Pressure Air Temp Water Temp Dewpoint Dewpoint Depression Visibility Wind Speed Wind Dir Waves Ship Positions

Maimiti

Last reported at 2017-Aug-22 20:29 UTC. Time now 2017-Aug-22 20:45 UTC.
Position N 51°48' E 003°11'.

Length 35 m; draft 6.7 m.

Type: Tug. MMSI: 244850959.

Date/timePositionNaut miles runAvg speedWind from/ knotsBaromVisibWave heightAir tempDewpointWater temp
2017-Aug-22 20:29N 51°48' E 003°11'2 3.9
2017-Aug-22 20:00N 51°47' E 003°13'2 4.0
2017-Aug-22 19:30N 51°45' E 003°14'2 4.3
2017-Aug-22 19:00N 51°43' E 003°16'3 5.3
2017-Aug-22 18:30N 51°41' E 003°19'2 4.6
2017-Aug-22 17:59N 51°39' E 003°20'3 5.7
2017-Aug-22 17:30N 51°36' E 003°23'3 6.0
2017-Aug-22 17:00N 51°34' E 003°25'3 6.8
2017-Aug-22 16:30N 51°31' E 003°27'3 7.0
2017-Aug-22 16:01N 51°28' E 003°31'3 6.5
2017-Aug-22 15:30N 51°26' E 003°35'3 6.1
2017-Aug-22 15:00N 51°27' E 003°40'2 4.8
2017-Aug-22 14:30N 51°28' E 003°43'0 0.4
2017-Aug-22 14:01N 51°28' E 003°42'0 0.1
2017-Aug-22 13:30N 51°28' E 003°42'0 0.0
2017-Aug-22 13:00N 51°28' E 003°42'0 0.0
2017-Aug-22 12:30N 51°28' E 003°42'0 0.0
2017-Aug-22 12:01N 51°28' E 003°42'0 0.0
2017-Aug-22 11:30N 51°28' E 003°42'0 0.0
2017-Aug-22 11:00N 51°28' E 003°42'0 0.0
2017-Aug-22 10:30N 51°28' E 003°42'0 0.0
2017-Aug-22 10:01N 51°28' E 003°42'0 0.0
2017-Aug-22 09:30N 51°28' E 003°42'0 0.0
2017-Aug-22 09:00N 51°28' E 003°42'0 0.0
2017-Aug-22 08:30N 51°28' E 003°42'0 0.0
2017-Aug-22 08:01N 51°28' E 003°42'0 0.0
2017-Aug-22 07:29N 51°28' E 003°42'0 0.0
2017-Aug-22 07:00N 51°28' E 003°42'0 0.0
2017-Aug-22 06:30N 51°28' E 003°42'0 0.0
2017-Aug-22 06:00N 51°28' E 003°42'0 0.0
2017-Aug-22 05:30N 51°28' E 003°42'0 0.0
2017-Aug-22 05:00N 51°28' E 003°42'0 0.0
2017-Aug-22 04:30N 51°28' E 003°42'0 0.0
2017-Aug-22 04:01N 51°28' E 003°42'0 0.0
2017-Aug-22 03:31N 51°28' E 003°42'0 0.0
2017-Aug-22 03:00N 51°28' E 003°42'0 0.0
2017-Aug-22 02:30N 51°28' E 003°42'0 0.0
2017-Aug-22 02:00N 51°28' E 003°42'0 0.0
2017-Aug-22 01:30N 51°28' E 003°42'0 0.0
2017-Aug-22 01:00N 51°28' E 003°42'0 0.0
2017-Aug-22 00:30N 51°28' E 003°42'0 0.0
2017-Aug-22 00:00N 51°28' E 003°42'0 0.0
2017-Aug-21 23:30N 51°28' E 003°42'0 0.0
2017-Aug-21 23:00N 51°28' E 003°42'0 0.0
2017-Aug-21 22:26N 51°28' E 003°42'0 0.0
2017-Aug-21 22:00N 51°28' E 003°42'0 0.0
2017-Aug-21 21:30N 51°28' E 003°42'0 0.0
2017-Aug-21 21:00N 51°28' E 003°42'0 0.0
2017-Aug-21 20:30N 51°28' E 003°42'0 0.0
2017-Aug-21 20:00N 51°28' E 003°42'0 0.0
2017-Aug-21 19:30N 51°28' E 003°42'0 0.0
2017-Aug-21 19:00N 51°28' E 003°42'0 0.0
2017-Aug-21 18:30N 51°28' E 003°42'0 0.0
2017-Aug-21 18:00N 51°28' E 003°42'0 0.0
2017-Aug-21 17:30N 51°28' E 003°42'0 0.0
2017-Aug-21 17:00N 51°28' E 003°42'0 0.0
2017-Aug-21 16:30N 51°28' E 003°42'0 0.0
2017-Aug-21 16:00N 51°28' E 003°42'0 0.0
2017-Aug-21 15:31N 51°28' E 003°42'0 0.0
2017-Aug-21 15:00N 51°28' E 003°42'0 0.0
2017-Aug-21 14:30N 51°28' E 003°42'0 0.0
2017-Aug-21 14:00N 51°28' E 003°42'0 0.0
2017-Aug-21 13:29N 51°28' E 003°42'0 0.0
2017-Aug-21 13:00N 51°28' E 003°42'0 0.0
2017-Aug-21 12:30N 51°28' E 003°42'0 0.0
2017-Aug-21 12:00N 51°28' E 003°42'0 0.0
2017-Aug-21 11:30N 51°28' E 003°42'0 0.0
2017-Aug-21 11:00N 51°28' E 003°42'0 0.0
2017-Aug-21 10:29N 51°28' E 003°42'0 0.0
2017-Aug-21 10:00N 51°28' E 003°42'0 0.0
2017-Aug-21 09:30N 51°28' E 003°42'0 0.0
2017-Aug-21 09:00N 51°28' E 003°42'0 0.0
2017-Aug-21 08:30N 51°28' E 003°42'0 0.0
2017-Aug-21 08:00N 51°28' E 003°42'0 0.0
2017-Aug-21 07:29N 51°28' E 003°42'0 0.0
2017-Aug-21 07:00N 51°28' E 003°42'0 0.0
2017-Aug-21 06:30N 51°28' E 003°42'0 0.0
2017-Aug-21 06:01N 51°28' E 003°42'0 0.0
2017-Aug-21 05:30N 51°28' E 003°42'0 0.0
2017-Aug-21 05:00N 51°28' E 003°42'0 0.0
2017-Aug-21 04:30N 51°28' E 003°42'0 0.0
2017-Aug-21 04:00N 51°28' E 003°42'0 0.0
2017-Aug-21 03:30N 51°28' E 003°42'0 0.0
2017-Aug-21 03:00N 51°28' E 003°42'0 0.0
2017-Aug-21 02:30N 51°28' E 003°42'0 0.0
2017-Aug-21 02:01N 51°28' E 003°42'0 0.0
2017-Aug-21 01:30N 51°28' E 003°42'0 0.0
2017-Aug-21 01:00N 51°28' E 003°42'0 0.0
2017-Aug-21 00:30N 51°28' E 003°42'0 0.0
2017-Aug-21 00:00N 51°28' E 003°42'0 0.0
2017-Aug-20 23:31N 51°28' E 003°42'0 0.0
2017-Aug-20 23:00N 51°28' E 003°42'0 0.0
2017-Aug-20 22:30N 51°28' E 003°42'0 0.0
2017-Aug-20 22:01N 51°28' E 003°42'0 0.0
2017-Aug-20 21:30N 51°28' E 003°42'0 0.0
2017-Aug-20 21:00N 51°28' E 003°42'0 0.0
2017-Aug-20 20:30N 51°28' E 003°42'0 0.0
2017-Aug-20 20:00N 51°28' E 003°42'0 0.0
2017-Aug-20 19:30N 51°28' E 003°42'0 0.0
2017-Aug-20 19:00N 51°28' E 003°42'0 0.0
2017-Aug-20 18:30N 51°28' E 003°42'0 0.0
2017-Aug-20 18:00N 51°28' E 003°42'0 0.0
2017-Aug-20 17:30N 51°28' E 003°42'0 0.0
2017-Aug-20 17:00N 51°28' E 003°42'0 0.0
2017-Aug-20 16:30N 51°28' E 003°42'0 0.0
2017-Aug-20 16:00N 51°28' E 003°42'0 0.0
2017-Aug-20 15:30N 51°28' E 003°42'0 0.0
2017-Aug-20 15:00N 51°28' E 003°42'0 0.0
2017-Aug-20 14:30N 51°28' E 003°42'0 0.0
2017-Aug-20 14:00N 51°28' E 003°42'0 0.0
2017-Aug-20 13:30N 51°28' E 003°42'0 0.0
2017-Aug-20 12:58N 51°28' E 003°42'0 0.0
2017-Aug-20 12:30N 51°28' E 003°42'0 0.0
2017-Aug-20 12:00N 51°28' E 003°42'0 0.0
2017-Aug-20 11:31N 51°28' E 003°42'0 0.0
2017-Aug-20 11:01N 51°28' E 003°42'0 0.0
2017-Aug-20 10:30N 51°28' E 003°42'0 0.0
2017-Aug-20 09:59N 51°28' E 003°42'0 0.0
2017-Aug-20 09:30N 51°28' E 003°42'0 0.0
2017-Aug-20 09:00N 51°28' E 003°42'0 0.0
2017-Aug-20 08:30N 51°28' E 003°42'0 0.0
2017-Aug-20 08:00N 51°28' E 003°42'0 0.0
2017-Aug-20 07:30N 51°28' E 003°42'0 0.0
2017-Aug-20 07:00N 51°28' E 003°42'0 0.0
2017-Aug-20 06:30N 51°28' E 003°42'0 0.0
2017-Aug-20 06:00N 51°28' E 003°42'0 0.0
2017-Aug-20 05:30N 51°28' E 003°42'0 0.0
2017-Aug-20 05:00N 51°28' E 003°42'0 0.0
2017-Aug-20 04:31N 51°28' E 003°42'0 0.0
2017-Aug-20 04:00N 51°28' E 003°42'0 0.0
2017-Aug-20 03:30N 51°28' E 003°42'0 0.0
2017-Aug-20 03:00N 51°28' E 003°42'0 0.0
2017-Aug-20 02:30N 51°28' E 003°42'0 0.0
2017-Aug-20 02:00N 51°28' E 003°42'0 0.0
2017-Aug-20 01:30N 51°28' E 003°42'0 0.0
2017-Aug-20 01:00N 51°28' E 003°42'0 0.0
2017-Aug-20 00:30N 51°28' E 003°42'0 0.0
2017-Aug-20 00:00N 51°28' E 003°42'0 0.0
2017-Aug-19 23:30N 51°28' E 003°42'0 0.0
2017-Aug-19 23:00N 51°28' E 003°42'0 0.0
2017-Aug-19 22:30N 51°28' E 003°42'0 0.0
2017-Aug-19 22:01N 51°28' E 003°42'0 0.0
2017-Aug-19 21:30N 51°28' E 003°42'0 0.0
2017-Aug-19 21:00N 51°28' E 003°42'0 0.0
2017-Aug-19 20:30N 51°28' E 003°42'0 0.0
2017-Aug-19 20:00N 51°28' E 003°42'0 0.0
2017-Aug-19 19:31N 51°28' E 003°42'0 0.0
2017-Aug-19 19:01N 51°28' E 003°42'0 0.0
2017-Aug-19 18:30N 51°28' E 003°42'0 0.0
2017-Aug-19 17:59N 51°28' E 003°42'0 0.0
2017-Aug-19 17:30N 51°28' E 003°42'0 0.0
2017-Aug-19 17:00N 51°28' E 003°42'0 0.0
2017-Aug-19 16:30N 51°28' E 003°42'0 0.0
2017-Aug-19 16:00N 51°28' E 003°42'0 0.0
2017-Aug-19 15:30N 51°28' E 003°42'0 0.2
2017-Aug-19 15:00N 51°28' E 003°42'0 0.1
2017-Aug-19 14:00N 51°28' E 003°42'0 0.2
2017-Aug-19 13:30N 51°29' E 003°42'0 0.0
2017-Aug-19 13:00N 51°29' E 003°42'0 0.0
2017-Aug-19 12:30N 51°29' E 003°42'0 0.0
2017-Aug-19 12:00N 51°29' E 003°42'0 0.0
2017-Aug-19 11:30N 51°29' E 003°42'0 0.0
2017-Aug-19 11:00N 51°29' E 003°42'0 0.0
2017-Aug-19 10:29N 51°29' E 003°42'0 0.0
2017-Aug-19 10:00N 51°29' E 003°42'0 0.0
2017-Aug-19 09:30N 51°29' E 003°42'0 0.0
2017-Aug-19 09:00N 51°29' E 003°42'0 0.0
2017-Aug-19 08:30N 51°29' E 003°42'0 0.0
2017-Aug-19 08:00N 51°29' E 003°42'0 0.0
2017-Aug-19 07:30N 51°29' E 003°42'0 0.0
2017-Aug-19 07:00N 51°29' E 003°42'0 0.0
2017-Aug-19 06:30N 51°29' E 003°42'0 0.0
2017-Aug-19 05:54N 51°29' E 003°42'0 0.0
2017-Aug-19 05:29N 51°29' E 003°42'0 0.0
2017-Aug-19 05:00N 51°29' E 003°42'0 0.0
2017-Aug-19 04:29N 51°29' E 003°42'0 0.0
2017-Aug-19 03:59N 51°29' E 003°42'0 0.0
2017-Aug-19 03:30N 51°29' E 003°42'0 0.0
2017-Aug-19 03:00N 51°29' E 003°42'0 0.0
2017-Aug-19 02:30N 51°29' E 003°42'0 0.0
2017-Aug-19 02:00N 51°29' E 003°42'0 0.0
2017-Aug-19 01:30N 51°29' E 003°42'0 0.0
2017-Aug-19 01:00N 51°29' E 003°42'0 0.0
2017-Aug-19 00:28N 51°29' E 003°42'0 0.0
2017-Aug-18 23:56N 51°29' E 003°42'0 0.0
2017-Aug-18 23:20N 51°29' E 003°42'0 0.0
2017-Aug-18 22:55N 51°29' E 003°42'0 0.0
2017-Aug-18 22:22N 51°29' E 003°42'0 0.0
2017-Aug-18 21:59N 51°29' E 003°42'0 0.0
2017-Aug-18 21:27N 51°29' E 003°42'0 0.0
2017-Aug-18 21:01N 51°29' E 003°42'0 0.0
2017-Aug-18 20:30N 51°29' E 003°42'0 0.0
2017-Aug-18 20:00N 51°29' E 003°42'0 0.0
2017-Aug-18 19:30N 51°29' E 003°42'0 0.0
2017-Aug-18 19:00N 51°29' E 003°42'0 0.0
2017-Aug-18 18:30N 51°29' E 003°42'0 0.0
2017-Aug-18 18:00N 51°29' E 003°42'0 0.0
2017-Aug-18 17:25N 51°29' E 003°42'0 0.0
2017-Aug-18 17:00N 51°29' E 003°42'0 0.0
2017-Aug-18 16:29N 51°29' E 003°42'0 0.0
2017-Aug-18 15:59N 51°29' E 003°42'0 0.0
2017-Aug-18 15:30N 51°29' E 003°42'0 0.0
2017-Aug-18 14:58N 51°29' E 003°42'0 0.0
2017-Aug-18 14:27N 51°29' E 003°42'0 0.0
2017-Aug-18 13:27N 51°29' E 003°42'0 0.0
2017-Aug-18 12:58N 51°29' E 003°42'0 0.0
2017-Aug-18 12:29N 51°29' E 003°42'0 0.0
2017-Aug-18 11:59N 51°29' E 003°42'0 0.0
2017-Aug-18 11:30N 51°29' E 003°42'0 0.0
2017-Aug-18 11:00N 51°29' E 003°42'0 0.0
2017-Aug-18 10:30N 51°29' E 003°42'0 0.0
2017-Aug-18 09:58N 51°29' E 003°42'0 0.0
2017-Aug-18 09:29N 51°29' E 003°42'0 0.0
2017-Aug-18 08:59N 51°29' E 003°42'0 0.0
2017-Aug-18 08:29N 51°29' E 003°42'0 0.0
2017-Aug-18 07:58N 51°29' E 003°42'0 0.0
2017-Aug-18 07:26N 51°29' E 003°42'0 0.0
2017-Aug-18 06:57N 51°29' E 003°42'0 0.0
2017-Aug-18 06:30N 51°29' E 003°42'0 0.0
2017-Aug-18 06:00N 51°29' E 003°42'0 0.0
2017-Aug-18 05:30N 51°29' E 003°42'0 0.0
2017-Aug-18 05:00N 51°29' E 003°42'0 0.0
2017-Aug-18 04:30N 51°29' E 003°42'0 0.0
2017-Aug-18 04:00N 51°29' E 003°42'0 0.0
2017-Aug-18 03:30N 51°29' E 003°42'0 0.0
2017-Aug-18 03:00N 51°29' E 003°42'0 0.0
2017-Aug-18 02:30N 51°29' E 003°42'0 0.0
2017-Aug-18 02:00N 51°29' E 003°42'0 0.0
2017-Aug-18 01:30N 51°29' E 003°42'0 0.0
2017-Aug-18 01:00N 51°29' E 003°42'0 0.0
2017-Aug-18 00:30N 51°29' E 003°42'0 0.0
2017-Aug-18 00:00N 51°29' E 003°42'0 0.0
2017-Aug-17 23:27N 51°29' E 003°42'0 0.0
2017-Aug-17 22:58N 51°29' E 003°42'0 0.0
2017-Aug-17 22:23N 51°29' E 003°42'0 0.0
2017-Aug-17 21:53N 51°29' E 003°42'0 0.0
2017-Aug-17 21:16N 51°29' E 003°42'0 0.0
2017-Aug-17 20:58N 51°29' E 003°42'0 0.0
2017-Aug-17 20:30N 51°29' E 003°42'0 0.0
2017-Aug-17 20:00N 51°29' E 003°42'0 0.0
2017-Aug-17 19:30N 51°29' E 003°42'0 0.0
2017-Aug-17 19:00N 51°29' E 003°42'0 0.0
2017-Aug-17 18:30N 51°29' E 003°42'0 0.0
2017-Aug-17 18:00N 51°29' E 003°42'0 0.0
2017-Aug-17 17:29N 51°29' E 003°42'0 0.0
2017-Aug-17 17:00N 51°29' E 003°42'0 0.0
2017-Aug-17 16:30N 51°29' E 003°42'0 0.0
2017-Aug-17 16:00N 51°29' E 003°42'0 0.0
2017-Aug-17 15:30N 51°29' E 003°42'0 0.0
2017-Aug-17 15:00N 51°29' E 003°42'0 0.0
2017-Aug-17 14:30N 51°29' E 003°42'0 0.0
2017-Aug-17 14:00N 51°29' E 003°42'0 0.0
2017-Aug-17 13:30N 51°29' E 003°42'0 0.0
2017-Aug-17 13:00N 51°29' E 003°42'0 0.0
2017-Aug-17 12:29N 51°29' E 003°42'0 0.0
2017-Aug-17 12:00N 51°29' E 003°42'0 0.0
2017-Aug-17 11:30N 51°29' E 003°42'0 0.0
2017-Aug-17 11:00N 51°29' E 003°42'0 0.0
2017-Aug-17 10:30N 51°29' E 003°42'0 0.0
2017-Aug-17 10:01N 51°29' E 003°42'0 0.0
2017-Aug-17 09:30N 51°29' E 003°42'0 0.0
2017-Aug-17 09:00N 51°29' E 003°42'0 0.0
2017-Aug-17 08:30N 51°29' E 003°42'0 0.0
2017-Aug-17 08:00N 51°29' E 003°42'0 0.0
2017-Aug-17 07:30N 51°29' E 003°42'0 0.0
2017-Aug-17 07:01N 51°29' E 003°42'0 0.0
2017-Aug-17 06:31N 51°29' E 003°42'0 0.0
2017-Aug-17 05:58N 51°29' E 003°42'0 0.0
2017-Aug-17 05:30N 51°29' E 003°42'0 0.0
2017-Aug-17 05:00N 51°29' E 003°42'0 0.0
2017-Aug-17 04:30N 51°29' E 003°42'0 0.0
2017-Aug-17 04:01N 51°29' E 003°42'0 0.0
2017-Aug-17 03:30N 51°29' E 003°42'0 0.0
2017-Aug-17 03:00N 51°29' E 003°42'0 0.0
2017-Aug-17 02:30N 51°29' E 003°42'0 0.0
2017-Aug-17 02:00N 51°29' E 003°42'0 0.0
2017-Aug-17 01:30N 51°29' E 003°42'0 0.0
2017-Aug-17 01:00N 51°29' E 003°42'0 0.0
2017-Aug-17 00:30N 51°29' E 003°42'0 0.0
2017-Aug-17 00:00N 51°29' E 003°42'0 0.0
2017-Aug-16 23:30N 51°29' E 003°42'0 0.0
2017-Aug-16 23:00N 51°29' E 003°42'0 0.0
2017-Aug-16 22:28N 51°29' E 003°42'0 0.0
2017-Aug-16 22:00N 51°29' E 003°42'0 0.0
2017-Aug-16 21:31N 51°29' E 003°42'0 0.0
2017-Aug-16 21:00N 51°29' E 003°42'0 0.0
2017-Aug-16 20:30N 51°29' E 003°42'0 0.0
2017-Aug-16 20:00N 51°29' E 003°42'1 1.4
2017-Aug-16 19:30N 51°28' E 003°42'1 2.4
2017-Aug-16 19:00N 51°27' E 003°42'0 0.1
2017-Aug-16 18:30N 51°27' E 003°42'0 0.0
2017-Aug-16 18:00N 51°27' E 003°42'0 0.1
2017-Aug-16 17:30N 51°27' E 003°42'0 0.0
2017-Aug-16 17:01N 51°27' E 003°42'0 0.0
2017-Aug-16 16:30N 51°27' E 003°42'0 0.0
2017-Aug-16 16:01N 51°27' E 003°42'0 0.0
2017-Aug-16 15:30N 51°27' E 003°42'0 0.1
2017-Aug-16 15:01N 51°27' E 003°42'0 0.1
2017-Aug-16 14:30N 51°27' E 003°42'0 0.0
2017-Aug-16 14:00N 51°27' E 003°42'0 0.0
2017-Aug-16 13:30N 51°27' E 003°42'0 0.0
2017-Aug-16 13:00N 51°27' E 003°42'0 0.0
2017-Aug-16 12:30N 51°27' E 003°42'0 0.0
2017-Aug-16 12:00N 51°27' E 003°42'0 0.0
2017-Aug-16 11:30N 51°27' E 003°42'0 0.0
2017-Aug-16 11:00N 51°27' E 003°42'0 0.0
2017-Aug-16 10:30N 51°27' E 003°42'0 0.0
2017-Aug-16 10:00N 51°27' E 003°42'0 0.0
2017-Aug-16 09:30N 51°27' E 003°42'0 0.0
2017-Aug-16 09:00N 51°27' E 003°42'0 0.0
2017-Aug-16 08:30N 51°27' E 003°42'0 0.0
2017-Aug-16 08:00N 51°27' E 003°42'0 0.0
2017-Aug-16 07:30N 51°27' E 003°42'0 0.1
2017-Aug-16 07:00N 51°27' E 003°42'1 2.2
2017-Aug-16 06:30N 51°28' E 003°41'3 5.9
2017-Aug-16 06:00N 51°26' E 003°37'3 6.5
2017-Aug-16 05:29N 51°27' E 003°32'3 6.1
2017-Aug-16 05:00N 51°29' E 003°29'4 6.4
2017-Aug-16 04:25N 51°32' E 003°25'2 5.0
2017-Aug-16 03:58N 51°35' E 003°24'3 5.7
2017-Aug-16 03:29N 51°37' E 003°22'3 5.7
2017-Aug-16 03:00N 51°39' E 003°19'3 5.4
2017-Aug-16 02:23N 51°42' E 003°16'2 5.8
2017-Aug-16 02:00N 51°44' E 003°14'3 5.1
2017-Aug-16 01:27N 51°46' E 003°12'3 4.6
2017-Aug-16 00:54N 51°48' E 003°09'3 4.5
2017-Aug-16 00:10N 51°51' E 003°06'1 4.5
2017-Aug-15 23:55N 51°52' E 003°05'2 4.4
2017-Aug-15 23:30N 51°53' E 003°04'2 4.1
2017-Aug-15 23:00N 51°55' E 003°03'2 4.2
2017-Aug-15 22:24N 51°58' E 003°01'70 4.5
2017-Aug-15 06:59N 53°05' E 002°32'1 1.2
2017-Aug-15 06:29N 53°05' E 002°32'0 0.4
2017-Aug-15 06:00N 53°05' E 002°32'0 0.5
2017-Aug-15 05:29N 53°05' E 002°32'0 0.7
2017-Aug-15 04:58N 53°06' E 002°33'0 0.3
2017-Aug-15 04:15N 53°06' E 002°33'0 0.6
2017-Aug-15 04:00N 53°06' E 002°33'0 0.5
2017-Aug-15 03:31N 53°05' E 002°34'0 0.2
2017-Aug-15 03:00N 53°05' E 002°34'0 0.3
2017-Aug-15 02:31N 53°05' E 002°34'0 0.6
2017-Aug-15 02:01N 53°05' E 002°34'0 0.5
2017-Aug-15 01:30N 53°05' E 002°34'1 1.1
2017-Aug-15 01:00N 53°05' E 002°33'0 0.4
2017-Aug-15 00:30N 53°05' E 002°33'0 0.0
2017-Aug-15 00:00N 53°05' E 002°33'0 0.0
2017-Aug-14 23:30N 53°05' E 002°33'0 0.0
2017-Aug-14 23:01N 53°05' E 002°33'0 0.0
2017-Aug-14 22:31N 53°05' E 002°33'0 0.5
2017-Aug-14 22:00N 53°05' E 002°32'0 0.5
2017-Aug-14 21:30N 53°05' E 002°33'1 2.1
2017-Aug-14 21:00N 53°06' E 002°32'1 2.7
2017-Aug-14 20:29N 53°07' E 002°33'0 0.9
2017-Aug-14 20:00N 53°08' E 002°33'0 0.6
2017-Aug-14 19:30N 53°08' E 002°33'1 1.3
2017-Aug-14 18:36N 53°08' E 002°34'0 1.7
2017-Aug-14 18:30N 53°08' E 002°34'1 1.4
2017-Aug-14 18:01N 53°07' E 002°33'1 1.0
2017-Aug-14 17:31N 53°07' E 002°33'0 0.7
2017-Aug-14 17:00N 53°07' E 002°32'0 0.4
2017-Aug-14 16:30N 53°07' E 002°32'0 0.2
2017-Aug-14 16:00N 53°07' E 002°32'0 0.3
2017-Aug-14 15:30N 53°07' E 002°32'0 0.7
2017-Aug-14 14:54N 53°07' E 002°31'1 0.2
2017-Aug-14 11:58N 53°06' E 002°32'1 0.6
2017-Aug-14 09:54N 53°05' E 002°30'0 0.5
2017-Aug-14 09:31N 53°05' E 002°30'2 1.5
2017-Aug-14 07:57N 53°08' E 002°30'1 1.1
2017-Aug-14 07:28N 53°08' E 002°30'3 0.4
2017-Aug-13 22:57N 53°08' E 002°36'  
Track history (hours):
 
Tides and Currents Weather Stations Pressure Air Temp Water Temp Dewpoint Dewpoint Depression Visibility Wind Speed Wind Dir Waves Ship Positions

Maimiti

Last reported at 2017-Aug-22 20:29 UTC. Time now 2017-Aug-22 20:45 UTC.
Position N 51°48' E 003°11'.

Length 35 m; draft 6.7 m.

Type: Tug. MMSI: 244850959.

Date/timePositionNaut miles runAvg speedWind from/ knotsBaromVisibWave heightAir tempDewpointWater temp
2017-Aug-22 20:29N 51°48' E 003°11'2 3.9
2017-Aug-22 20:00N 51°47' E 003°13'2 4.0
2017-Aug-22 19:30N 51°45' E 003°14'2 4.3
2017-Aug-22 19:00N 51°43' E 003°16'3 5.3
2017-Aug-22 18:30N 51°41' E 003°19'2 4.6
2017-Aug-22 17:59N 51°39' E 003°20'3 5.7
2017-Aug-22 17:30N 51°36' E 003°23'3 6.0
2017-Aug-22 17:00N 51°34' E 003°25'3 6.8
2017-Aug-22 16:30N 51°31' E 003°27'3 7.0
2017-Aug-22 16:01N 51°28' E 003°31'3 6.5
2017-Aug-22 15:30N 51°26' E 003°35'3 6.1
2017-Aug-22 15:00N 51°27' E 003°40'2 4.8
2017-Aug-22 14:30N 51°28' E 003°43'0 0.4
2017-Aug-22 14:01N 51°28' E 003°42'0 0.1
2017-Aug-22 13:30N 51°28' E 003°42'0 0.0
2017-Aug-22 13:00N 51°28' E 003°42'0 0.0
2017-Aug-22 12:30N 51°28' E 003°42'0 0.0
2017-Aug-22 12:01N 51°28' E 003°42'0 0.0
2017-Aug-22 11:30N 51°28' E 003°42'0 0.0
2017-Aug-22 11:00N 51°28' E 003°42'0 0.0
2017-Aug-22 10:30N 51°28' E 003°42'0 0.0
2017-Aug-22 10:01N 51°28' E 003°42'0 0.0
2017-Aug-22 09:30N 51°28' E 003°42'0 0.0
2017-Aug-22 09:00N 51°28' E 003°42'0 0.0
2017-Aug-22 08:30N 51°28' E 003°42'0 0.0
2017-Aug-22 08:01N 51°28' E 003°42'0 0.0
2017-Aug-22 07:29N 51°28' E 003°42'0 0.0
2017-Aug-22 07:00N 51°28' E 003°42'0 0.0
2017-Aug-22 06:30N 51°28' E 003°42'0 0.0
2017-Aug-22 06:00N 51°28' E 003°42'0 0.0
2017-Aug-22 05:30N 51°28' E 003°42'0 0.0
2017-Aug-22 05:00N 51°28' E 003°42'0 0.0
2017-Aug-22 04:30N 51°28' E 003°42'0 0.0
2017-Aug-22 04:01N 51°28' E 003°42'0 0.0
2017-Aug-22 03:31N 51°28' E 003°42'0 0.0
2017-Aug-22 03:00N 51°28' E 003°42'0 0.0
2017-Aug-22 02:30N 51°28' E 003°42'0 0.0
2017-Aug-22 02:00N 51°28' E 003°42'0 0.0
2017-Aug-22 01:30N 51°28' E 003°42'0 0.0
2017-Aug-22 01:00N 51°28' E 003°42'0 0.0
2017-Aug-22 00:30N 51°28' E 003°42'0 0.0
2017-Aug-22 00:00N 51°28' E 003°42'0 0.0
2017-Aug-21 23:30N 51°28' E 003°42'0 0.0
2017-Aug-21 23:00N 51°28' E 003°42'0 0.0
2017-Aug-21 22:26N 51°28' E 003°42'0 0.0
2017-Aug-21 22:00N 51°28' E 003°42'0 0.0
2017-Aug-21 21:30N 51°28' E 003°42'0 0.0
2017-Aug-21 21:00N 51°28' E 003°42'0 0.0
2017-Aug-21 20:30N 51°28' E 003°42'0 0.0
2017-Aug-21 20:00N 51°28' E 003°42'0 0.0
2017-Aug-21 19:30N 51°28' E 003°42'0 0.0
2017-Aug-21 19:00N 51°28' E 003°42'0 0.0
2017-Aug-21 18:30N 51°28' E 003°42'0 0.0
2017-Aug-21 18:00N 51°28' E 003°42'0 0.0
2017-Aug-21 17:30N 51°28' E 003°42'0 0.0
2017-Aug-21 17:00N 51°28' E 003°42'0 0.0
2017-Aug-21 16:30N 51°28' E 003°42'0 0.0
2017-Aug-21 16:00N 51°28' E 003°42'0 0.0
2017-Aug-21 15:31N 51°28' E 003°42'0 0.0
2017-Aug-21 15:00N 51°28' E 003°42'0 0.0
2017-Aug-21 14:30N 51°28' E 003°42'0 0.0
2017-Aug-21 14:00N 51°28' E 003°42'0 0.0
2017-Aug-21 13:29N 51°28' E 003°42'0 0.0
2017-Aug-21 13:00N 51°28' E 003°42'0 0.0
2017-Aug-21 12:30N 51°28' E 003°42'0 0.0
2017-Aug-21 12:00N 51°28' E 003°42'0 0.0
2017-Aug-21 11:30N 51°28' E 003°42'0 0.0
2017-Aug-21 11:00N 51°28' E 003°42'0 0.0
2017-Aug-21 10:29N 51°28' E 003°42'0 0.0
2017-Aug-21 10:00N 51°28' E 003°42'0 0.0
2017-Aug-21 09:30N 51°28' E 003°42'0 0.0
2017-Aug-21 09:00N 51°28' E 003°42'0 0.0
2017-Aug-21 08:30N 51°28' E 003°42'0 0.0
2017-Aug-21 08:00N 51°28' E 003°42'0 0.0
2017-Aug-21 07:29N 51°28' E 003°42'0 0.0
2017-Aug-21 07:00N 51°28' E 003°42'0 0.0
2017-Aug-21 06:30N 51°28' E 003°42'0 0.0
2017-Aug-21 06:01N 51°28' E 003°42'0 0.0
2017-Aug-21 05:30N 51°28' E 003°42'0 0.0
2017-Aug-21 05:00N 51°28' E 003°42'0 0.0
2017-Aug-21 04:30N 51°28' E 003°42'0 0.0
2017-Aug-21 04:00N 51°28' E 003°42'0 0.0
2017-Aug-21 03:30N 51°28' E 003°42'0 0.0
2017-Aug-21 03:00N 51°28' E 003°42'0 0.0
2017-Aug-21 02:30N 51°28' E 003°42'0 0.0
2017-Aug-21 02:01N 51°28' E 003°42'0 0.0
2017-Aug-21 01:30N 51°28' E 003°42'0 0.0
2017-Aug-21 01:00N 51°28' E 003°42'0 0.0
2017-Aug-21 00:30N 51°28' E 003°42'0 0.0
2017-Aug-21 00:00N 51°28' E 003°42'0 0.0
2017-Aug-20 23:31N 51°28' E 003°42'0 0.0
2017-Aug-20 23:00N 51°28' E 003°42'0 0.0
2017-Aug-20 22:30N 51°28' E 003°42'0 0.0
2017-Aug-20 22:01N 51°28' E 003°42'0 0.0
2017-Aug-20 21:30N 51°28' E 003°42'0 0.0
2017-Aug-20 21:00N 51°28' E 003°42'0 0.0
2017-Aug-20 20:30N 51°28' E 003°42'0 0.0
2017-Aug-20 20:00N 51°28' E 003°42'0 0.0
2017-Aug-20 19:30N 51°28' E 003°42'0 0.0
2017-Aug-20 19:00N 51°28' E 003°42'0 0.0
2017-Aug-20 18:30N 51°28' E 003°42'0 0.0
2017-Aug-20 18:00N 51°28' E 003°42'0 0.0
2017-Aug-20 17:30N 51°28' E 003°42'0 0.0
2017-Aug-20 17:00N 51°28' E 003°42'0 0.0
2017-Aug-20 16:30N 51°28' E 003°42'0 0.0
2017-Aug-20 16:00N 51°28' E 003°42'0 0.0
2017-Aug-20 15:30N 51°28' E 003°42'0 0.0
2017-Aug-20 15:00N 51°28' E 003°42'0 0.0
2017-Aug-20 14:30N 51°28' E 003°42'0 0.0
2017-Aug-20 14:00N 51°28' E 003°42'0 0.0
2017-Aug-20 13:30N 51°28' E 003°42'0 0.0
2017-Aug-20 12:58N 51°28' E 003°42'0 0.0
2017-Aug-20 12:30N 51°28' E 003°42'0 0.0
2017-Aug-20 12:00N 51°28' E 003°42'0 0.0
2017-Aug-20 11:31N 51°28' E 003°42'0 0.0
2017-Aug-20 11:01N 51°28' E 003°42'0 0.0
2017-Aug-20 10:30N 51°28' E 003°42'0 0.0
2017-Aug-20 09:59N 51°28' E 003°42'0 0.0
2017-Aug-20 09:30N 51°28' E 003°42'0 0.0
2017-Aug-20 09:00N 51°28' E 003°42'0 0.0
2017-Aug-20 08:30N 51°28' E 003°42'0 0.0
2017-Aug-20 08:00N 51°28' E 003°42'0 0.0
2017-Aug-20 07:30N 51°28' E 003°42'0 0.0
2017-Aug-20 07:00N 51°28' E 003°42'0 0.0
2017-Aug-20 06:30N 51°28' E 003°42'0 0.0
2017-Aug-20 06:00N 51°28' E 003°42'0 0.0
2017-Aug-20 05:30N 51°28' E 003°42'0 0.0
2017-Aug-20 05:00N 51°28' E 003°42'0 0.0
2017-Aug-20 04:31N 51°28' E 003°42'0 0.0
2017-Aug-20 04:00N 51°28' E 003°42'0 0.0
2017-Aug-20 03:30N 51°28' E 003°42'0 0.0
2017-Aug-20 03:00N 51°28' E 003°42'0 0.0
2017-Aug-20 02:30N 51°28' E 003°42'0 0.0
2017-Aug-20 02:00N 51°28' E 003°42'0 0.0
2017-Aug-20 01:30N 51°28' E 003°42'0 0.0
2017-Aug-20 01:00N 51°28' E 003°42'0 0.0
2017-Aug-20 00:30N 51°28' E 003°42'0 0.0
2017-Aug-20 00:00N 51°28' E 003°42'0 0.0
2017-Aug-19 23:30N 51°28' E 003°42'0 0.0
2017-Aug-19 23:00N 51°28' E 003°42'0 0.0
2017-Aug-19 22:30N 51°28' E 003°42'0 0.0
2017-Aug-19 22:01N 51°28' E 003°42'0 0.0
2017-Aug-19 21:30N 51°28' E 003°42'0 0.0
2017-Aug-19 21:00N 51°28' E 003°42'0 0.0
2017-Aug-19 20:30N 51°28' E 003°42'0 0.0
2017-Aug-19 20:00N 51°28' E 003°42'0 0.0
2017-Aug-19 19:31N 51°28' E 003°42'0 0.0
2017-Aug-19 19:01N 51°28' E 003°42'0 0.0
2017-Aug-19 18:30N 51°28' E 003°42'0 0.0
2017-Aug-19 17:59N 51°28' E 003°42'0 0.0
2017-Aug-19 17:30N 51°28' E 003°42'0 0.0
2017-Aug-19 17:00N 51°28' E 003°42'0 0.0
2017-Aug-19 16:30N 51°28' E 003°42'0 0.0
2017-Aug-19 16:00N 51°28' E 003°42'0 0.0
2017-Aug-19 15:30N 51°28' E 003°42'0 0.2
2017-Aug-19 15:00N 51°28' E 003°42'0 0.1
2017-Aug-19 14:00N 51°28' E 003°42'0 0.2
2017-Aug-19 13:30N 51°29' E 003°42'0 0.0
2017-Aug-19 13:00N 51°29' E 003°42'0 0.0
2017-Aug-19 12:30N 51°29' E 003°42'0 0.0
2017-Aug-19 12:00N 51°29' E 003°42'0 0.0
2017-Aug-19 11:30N 51°29' E 003°42'0 0.0
2017-Aug-19 11:00N 51°29' E 003°42'0 0.0
2017-Aug-19 10:29N 51°29' E 003°42'0 0.0
2017-Aug-19 10:00N 51°29' E 003°42'0 0.0
2017-Aug-19 09:30N 51°29' E 003°42'0 0.0
2017-Aug-19 09:00N 51°29' E 003°42'0 0.0
2017-Aug-19 08:30N 51°29' E 003°42'0 0.0
2017-Aug-19 08:00N 51°29' E 003°42'0 0.0
2017-Aug-19 07:30N 51°29' E 003°42'0 0.0
2017-Aug-19 07:00N 51°29' E 003°42'0 0.0
2017-Aug-19 06:30N 51°29' E 003°42'0 0.0
2017-Aug-19 05:54N 51°29' E 003°42'0 0.0
2017-Aug-19 05:29N 51°29' E 003°42'0 0.0
2017-Aug-19 05:00N 51°29' E 003°42'0 0.0
2017-Aug-19 04:29N 51°29' E 003°42'0 0.0
2017-Aug-19 03:59N 51°29' E 003°42'0 0.0
2017-Aug-19 03:30N 51°29' E 003°42'0 0.0
2017-Aug-19 03:00N 51°29' E 003°42'0 0.0
2017-Aug-19 02:30N 51°29' E 003°42'0 0.0
2017-Aug-19 02:00N 51°29' E 003°42'0 0.0
2017-Aug-19 01:30N 51°29' E 003°42'0 0.0
2017-Aug-19 01:00N 51°29' E 003°42'0 0.0
2017-Aug-19 00:28N 51°29' E 003°42'0 0.0
2017-Aug-18 23:56N 51°29' E 003°42'0 0.0
2017-Aug-18 23:20N 51°29' E 003°42'0 0.0
2017-Aug-18 22:55N 51°29' E 003°42'0 0.0
2017-Aug-18 22:22N 51°29' E 003°42'0 0.0
2017-Aug-18 21:59N 51°29' E 003°42'0 0.0
2017-Aug-18 21:27N 51°29' E 003°42'0 0.0
2017-Aug-18 21:01N 51°29' E 003°42'0 0.0
2017-Aug-18 20:30N 51°29' E 003°42'0 0.0
2017-Aug-18 20:00N 51°29' E 003°42'0 0.0
2017-Aug-18 19:30N 51°29' E 003°42'0 0.0
2017-Aug-18 19:00N 51°29' E 003°42'0 0.0
2017-Aug-18 18:30N 51°29' E 003°42'0 0.0
2017-Aug-18 18:00N 51°29' E 003°42'0 0.0
2017-Aug-18 17:25N 51°29' E 003°42'0 0.0
2017-Aug-18 17:00N 51°29' E 003°42'0 0.0
2017-Aug-18 16:29N 51°29' E 003°42'0 0.0
2017-Aug-18 15:59N 51°29' E 003°42'0 0.0
2017-Aug-18 15:30N 51°29' E 003°42'0 0.0
2017-Aug-18 14:58N 51°29' E 003°42'0 0.0
2017-Aug-18 14:27N 51°29' E 003°42'0 0.0
2017-Aug-18 13:27N 51°29' E 003°42'0 0.0
2017-Aug-18 12:58N 51°29' E 003°42'0 0.0
2017-Aug-18 12:29N 51°29' E 003°42'0 0.0
2017-Aug-18 11:59N 51°29' E 003°42'0 0.0
2017-Aug-18 11:30N 51°29' E 003°42'0 0.0
2017-Aug-18 11:00N 51°29' E 003°42'0 0.0
2017-Aug-18 10:30N 51°29' E 003°42'0 0.0
2017-Aug-18 09:58N 51°29' E 003°42'0 0.0
2017-Aug-18 09:29N 51°29' E 003°42'0 0.0
2017-Aug-18 08:59N 51°29' E 003°42'0 0.0
2017-Aug-18 08:29N 51°29' E 003°42'0 0.0
2017-Aug-18 07:58N 51°29' E 003°42'0 0.0
2017-Aug-18 07:26N 51°29' E 003°42'0 0.0
2017-Aug-18 06:57N 51°29' E 003°42'0 0.0
2017-Aug-18 06:30N 51°29' E 003°42'0 0.0
2017-Aug-18 06:00N 51°29' E 003°42'0 0.0
2017-Aug-18 05:30N 51°29' E 003°42'0 0.0
2017-Aug-18 05:00N 51°29' E 003°42'0 0.0
2017-Aug-18 04:30N 51°29' E 003°42'0 0.0
2017-Aug-18 04:00N 51°29' E 003°42'0 0.0
2017-Aug-18 03:30N 51°29' E 003°42'0 0.0
2017-Aug-18 03:00N 51°29' E 003°42'0 0.0
2017-Aug-18 02:30N 51°29' E 003°42'0 0.0
2017-Aug-18 02:00N 51°29' E 003°42'0 0.0
2017-Aug-18 01:30N 51°29' E 003°42'0 0.0
2017-Aug-18 01:00N 51°29' E 003°42'0 0.0
2017-Aug-18 00:30N 51°29' E 003°42'0 0.0
2017-Aug-18 00:00N 51°29' E 003°42'0 0.0
2017-Aug-17 23:27N 51°29' E 003°42'0 0.0
2017-Aug-17 22:58N 51°29' E 003°42'0 0.0
2017-Aug-17 22:23N 51°29' E 003°42'0 0.0
2017-Aug-17 21:53N 51°29' E 003°42'0 0.0
2017-Aug-17 21:16N 51°29' E 003°42'0 0.0
2017-Aug-17 20:58N 51°29' E 003°42'0 0.0
2017-Aug-17 20:30N 51°29' E 003°42'0 0.0
2017-Aug-17 20:00N 51°29' E 003°42'0 0.0
2017-Aug-17 19:30N 51°29' E 003°42'0 0.0
2017-Aug-17 19:00N 51°29' E 003°42'0 0.0
2017-Aug-17 18:30N 51°29' E 003°42'0 0.0
2017-Aug-17 18:00N 51°29' E 003°42'0 0.0
2017-Aug-17 17:29N 51°29' E 003°42'0 0.0
2017-Aug-17 17:00N 51°29' E 003°42'0 0.0
2017-Aug-17 16:30N 51°29' E 003°42'0 0.0
2017-Aug-17 16:00N 51°29' E 003°42'0 0.0
2017-Aug-17 15:30N 51°29' E 003°42'0 0.0
2017-Aug-17 15:00N 51°29' E 003°42'0 0.0
2017-Aug-17 14:30N 51°29' E 003°42'0 0.0
2017-Aug-17 14:00N 51°29' E 003°42'0 0.0
2017-Aug-17 13:30N 51°29' E 003°42'0 0.0
2017-Aug-17 13:00N 51°29' E 003°42'0 0.0
2017-Aug-17 12:29N 51°29' E 003°42'0 0.0
2017-Aug-17 12:00N 51°29' E 003°42'0 0.0
2017-Aug-17 11:30N 51°29' E 003°42'0 0.0
2017-Aug-17 11:00N 51°29' E 003°42'0 0.0
2017-Aug-17 10:30N 51°29' E 003°42'0 0.0
2017-Aug-17 10:01N 51°29' E 003°42'0 0.0
2017-Aug-17 09:30N 51°29' E 003°42'0 0.0
2017-Aug-17 09:00N 51°29' E 003°42'0 0.0
2017-Aug-17 08:30N 51°29' E 003°42'0 0.0
2017-Aug-17 08:00N 51°29' E 003°42'0 0.0
2017-Aug-17 07:30N 51°29' E 003°42'0 0.0
2017-Aug-17 07:01N 51°29' E 003°42'0 0.0
2017-Aug-17 06:31N 51°29' E 003°42'0 0.0
2017-Aug-17 05:58N 51°29' E 003°42'0 0.0
2017-Aug-17 05:30N 51°29' E 003°42'0 0.0
2017-Aug-17 05:00N 51°29' E 003°42'0 0.0
2017-Aug-17 04:30N 51°29' E 003°42'0 0.0
2017-Aug-17 04:01N 51°29' E 003°42'0 0.0
2017-Aug-17 03:30N 51°29' E 003°42'0 0.0
2017-Aug-17 03:00N 51°29' E 003°42'0 0.0
2017-Aug-17 02:30N 51°29' E 003°42'0 0.0
2017-Aug-17 02:00N 51°29' E 003°42'0 0.0
2017-Aug-17 01:30N 51°29' E 003°42'0 0.0
2017-Aug-17 01:00N 51°29' E 003°42'0 0.0
2017-Aug-17 00:30N 51°29' E 003°42'0 0.0
2017-Aug-17 00:00N 51°29' E 003°42'0 0.0
2017-Aug-16 23:30N 51°29' E 003°42'0 0.0
2017-Aug-16 23:00N 51°29' E 003°42'0 0.0
2017-Aug-16 22:28N 51°29' E 003°42'0 0.0
2017-Aug-16 22:00N 51°29' E 003°42'0 0.0
2017-Aug-16 21:31N 51°29' E 003°42'0 0.0
2017-Aug-16 21:00N 51°29' E 003°42'0 0.0
2017-Aug-16 20:30N 51°29' E 003°42'0 0.0
2017-Aug-16 20:00N 51°29' E 003°42'1 1.4
2017-Aug-16 19:30N 51°28' E 003°42'1 2.4
2017-Aug-16 19:00N 51°27' E 003°42'0 0.1
2017-Aug-16 18:30N 51°27' E 003°42'0 0.0
2017-Aug-16 18:00N 51°27' E 003°42'0 0.1
2017-Aug-16 17:30N 51°27' E 003°42'0 0.0
2017-Aug-16 17:01N 51°27' E 003°42'0 0.0
2017-Aug-16 16:30N 51°27' E 003°42'0 0.0
2017-Aug-16 16:01N 51°27' E 003°42'0 0.0
2017-Aug-16 15:30N 51°27' E 003°42'0 0.1
2017-Aug-16 15:01N 51°27' E 003°42'0 0.1
2017-Aug-16 14:30N 51°27' E 003°42'0 0.0
2017-Aug-16 14:00N 51°27' E 003°42'0 0.0
2017-Aug-16 13:30N 51°27' E 003°42'0 0.0
2017-Aug-16 13:00N 51°27' E 003°42'0 0.0
2017-Aug-16 12:30N 51°27' E 003°42'0 0.0
2017-Aug-16 12:00N 51°27' E 003°42'0 0.0
2017-Aug-16 11:30N 51°27' E 003°42'0 0.0
2017-Aug-16 11:00N 51°27' E 003°42'0 0.0
2017-Aug-16 10:30N 51°27' E 003°42'0 0.0
2017-Aug-16 10:00N 51°27' E 003°42'0 0.0
2017-Aug-16 09:30N 51°27' E 003°42'0 0.0
2017-Aug-16 09:00N 51°27' E 003°42'0 0.0
2017-Aug-16 08:30N 51°27' E 003°42'0 0.0
2017-Aug-16 08:00N 51°27' E 003°42'0 0.0
2017-Aug-16 07:30N 51°27' E 003°42'0 0.1
2017-Aug-16 07:00N 51°27' E 003°42'1 2.2
2017-Aug-16 06:30N 51°28' E 003°41'3 5.9
2017-Aug-16 06:00N 51°26' E 003°37'3 6.5
2017-Aug-16 05:29N 51°27' E 003°32'3 6.1
2017-Aug-16 05:00N 51°29' E 003°29'4 6.4
2017-Aug-16 04:25N 51°32' E 003°25'2 5.0
2017-Aug-16 03:58N 51°35' E 003°24'3 5.7
2017-Aug-16 03:29N 51°37' E 003°22'3 5.7
2017-Aug-16 03:00N 51°39' E 003°19'3 5.4
2017-Aug-16 02:23N 51°42' E 003°16'2 5.8
2017-Aug-16 02:00N 51°44' E 003°14'3 5.1
2017-Aug-16 01:27N 51°46' E 003°12'3 4.6
2017-Aug-16 00:54N 51°48' E 003°09'3 4.5
2017-Aug-16 00:10N 51°51' E 003°06'1 4.5
2017-Aug-15 23:55N 51°52' E 003°05'2 4.4
2017-Aug-15 23:30N 51°53' E 003°04'2 4.1
2017-Aug-15 23:00N 51°55' E 003°03'2 4.2
2017-Aug-15 22:24N 51°58' E 003°01'70 4.5
2017-Aug-15 06:59N 53°05' E 002°32'1 1.2
2017-Aug-15 06:29N 53°05' E 002°32'0 0.4
2017-Aug-15 06:00N 53°05' E 002°32'0 0.5
2017-Aug-15 05:29N 53°05' E 002°32'0 0.7
2017-Aug-15 04:58N 53°06' E 002°33'0 0.3
2017-Aug-15 04:15N 53°06' E 002°33'0 0.6
2017-Aug-15 04:00N 53°06' E 002°33'0 0.5
2017-Aug-15 03:31N 53°05' E 002°34'0 0.2
2017-Aug-15 03:00N 53°05' E 002°34'0 0.3
2017-Aug-15 02:31N 53°05' E 002°34'0 0.6
2017-Aug-15 02:01N 53°05' E 002°34'0 0.5
2017-Aug-15 01:30N 53°05' E 002°34'1 1.1
2017-Aug-15 01:00N 53°05' E 002°33'0 0.4
2017-Aug-15 00:30N 53°05' E 002°33'0 0.0
2017-Aug-15 00:00N 53°05' E 002°33'0 0.0
2017-Aug-14 23:30N 53°05' E 002°33'0 0.0
2017-Aug-14 23:01N 53°05' E 002°33'0 0.0
2017-Aug-14 22:31N 53°05' E 002°33'0 0.5
2017-Aug-14 22:00N 53°05' E 002°32'0 0.5
2017-Aug-14 21:30N 53°05' E 002°33'1 2.1
2017-Aug-14 21:00N 53°06' E 002°32'1 2.7
2017-Aug-14 20:29N 53°07' E 002°33'0 0.9
2017-Aug-14 20:00N 53°08' E 002°33'0 0.6
2017-Aug-14 19:30N 53°08' E 002°33'1 1.3
2017-Aug-14 18:36N 53°08' E 002°34'0 1.7
2017-Aug-14 18:30N 53°08' E 002°34'1 1.4
2017-Aug-14 18:01N 53°07' E 002°33'1 1.0
2017-Aug-14 17:31N 53°07' E 002°33'0 0.7
2017-Aug-14 17:00N 53°07' E 002°32'0 0.4
2017-Aug-14 16:30N 53°07' E 002°32'0 0.2
2017-Aug-14 16:00N 53°07' E 002°32'0 0.3
2017-Aug-14 15:30N 53°07' E 002°32'0 0.7
2017-Aug-14 14:54N 53°07' E 002°31'1 0.2
2017-Aug-14 11:58N 53°06' E 002°32'1 0.6
2017-Aug-14 09:54N 53°05' E 002°30'0 0.5
2017-Aug-14 09:31N 53°05' E 002°30'2 1.5
2017-Aug-14 07:57N 53°08' E 002°30'1 1.1
2017-Aug-14 07:28N 53°08' E 002°30'3 0.4
2017-Aug-13 22:57N 53°08' E 002°36'  

Dump ship's entire track history